createdAt,value
2023-01-04T00:00:14.773Z,960.66
2023-01-04T00:01:14.687Z,960.63
2023-01-04T00:02:14.827Z,960.61
2023-01-04T00:03:14.817Z,960.56
2023-01-04T00:04:14.687Z,960.60
2023-01-04T00:05:14.640Z,960.56
2023-01-04T00:06:14.639Z,960.55
2023-01-04T00:07:14.641Z,960.53
2023-01-04T00:08:14.626Z,960.59
2023-01-04T00:09:14.629Z,960.60
2023-01-04T00:10:14.594Z,960.62
2023-01-04T00:11:14.575Z,960.62
2023-01-04T00:12:14.570Z,960.59
2023-01-04T00:13:14.567Z,960.57
2023-01-04T00:14:14.549Z,960.58
2023-01-04T00:15:14.549Z,960.55
2023-01-04T00:16:14.589Z,960.58
2023-01-04T00:17:14.537Z,960.58
2023-01-04T00:18:14.527Z,960.63
2023-01-04T00:19:14.492Z,960.62
2023-01-04T00:20:14.481Z,960.61
2023-01-04T00:21:14.463Z,960.63
2023-01-04T00:22:14.476Z,960.65
2023-01-04T00:23:14.457Z,960.60
2023-01-04T00:24:14.452Z,960.63
2023-01-04T00:25:14.414Z,960.64
2023-01-04T00:26:14.431Z,960.59
2023-01-04T00:27:14.401Z,960.58
2023-01-04T00:28:14.424Z,960.60
2023-01-04T00:29:14.438Z,960.55
2023-01-04T00:30:14.384Z,960.57
2023-01-04T00:31:14.401Z,960.57
2023-01-04T00:32:14.349Z,960.55
2023-01-04T00:33:14.330Z,960.58
2023-01-04T00:34:14.346Z,960.62
2023-01-04T00:35:32.824Z,960.52
2023-01-04T00:36:15.315Z,960.53
2023-01-04T00:37:14.293Z,960.52
2023-01-04T00:38:14.303Z,960.53
2023-01-04T00:39:14.262Z,960.50
2023-01-04T00:40:14.253Z,960.50
2023-01-04T00:41:57.529Z,960.54
2023-01-04T00:42:15.263Z,960.50
2023-01-04T00:43:14.231Z,960.44
2023-01-04T00:44:14.315Z,960.46
2023-01-04T00:45:14.214Z,960.40
2023-01-04T00:46:14.255Z,960.35
2023-01-04T00:47:14.170Z,960.29
2023-01-04T00:48:14.165Z,960.29
2023-01-04T00:49:14.169Z,960.26
2023-01-04T00:50:14.175Z,960.26
2023-01-04T00:51:14.130Z,960.25
2023-01-04T00:52:14.145Z,960.24
2023-01-04T00:53:14.115Z,960.25
2023-01-04T00:54:14.173Z,960.21
2023-01-04T00:55:14.079Z,960.19
2023-01-04T00:56:14.100Z,960.15
2023-01-04T00:57:14.068Z,960.08
2023-01-04T00:58:14.063Z,960.10
2023-01-04T00:59:14.055Z,960.12
2023-01-04T01:00:14.038Z,960.04
2023-01-04T01:01:14.178Z,960.05
2023-01-04T01:02:14.279Z,960.02
2023-01-04T01:03:14.084Z,959.95
2023-01-04T01:04:14.126Z,959.93
2023-01-04T01:05:13.988Z,959.85
2023-01-04T01:06:14.016Z,959.93
2023-01-04T01:07:13.951Z,959.90
2023-01-04T01:08:13.965Z,959.88
2023-01-04T01:09:13.927Z,959.94
2023-01-04T01:10:13.919Z,959.95
2023-01-04T01:11:13.908Z,959.95
2023-01-04T01:12:13.953Z,959.99
2023-01-04T01:13:13.887Z,960.04
2023-01-04T01:14:13.890Z,960.05
2023-01-04T01:15:13.875Z,960.06
2023-01-04T01:16:13.929Z,960.05
2023-01-04T01:17:13.991Z,960.06
2023-01-04T01:18:13.847Z,960.04
2023-01-04T01:19:13.845Z,960.00
2023-01-04T01:20:13.832Z,960.01
2023-01-04T01:21:13.803Z,960.01
2023-01-04T01:22:13.790Z,959.93
2023-01-04T01:23:13.793Z,959.93
2023-01-04T01:24:13.769Z,959.88
2023-01-04T01:25:13.749Z,959.90
2023-01-04T01:26:13.745Z,959.92
2023-01-04T01:27:13.730Z,959.92
2023-01-04T01:28:14.013Z,959.95
2023-01-04T01:29:13.735Z,959.92
2023-01-04T01:30:13.701Z,959.93
2023-01-04T01:31:13.766Z,959.93
2023-01-04T01:32:13.710Z,959.87
2023-01-04T01:33:13.695Z,959.84
2023-01-04T01:34:13.655Z,959.84
2023-01-04T01:35:13.642Z,959.86
2023-01-04T01:36:13.630Z,959.83
2023-01-04T01:37:13.633Z,959.79
2023-01-04T01:38:13.630Z,959.74
2023-01-04T01:39:13.641Z,959.74
2023-01-04T01:40:13.608Z,959.69
2023-01-04T01:41:13.571Z,959.67
2023-01-04T01:42:13.562Z,959.63
2023-01-04T01:43:13.561Z,959.70
2023-01-04T01:44:13.571Z,959.60
2023-01-04T01:45:13.570Z,959.63
2023-01-04T01:46:13.573Z,959.61
2023-01-04T01:47:13.504Z,959.66
2023-01-04T01:48:13.520Z,959.65
2023-01-04T01:49:13.532Z,959.64
2023-01-04T01:50:13.475Z,959.60
2023-01-04T01:51:13.466Z,959.54
2023-01-04T01:52:13.451Z,959.60
2023-01-04T01:53:13.465Z,959.57
2023-01-04T01:54:13.467Z,959.53
2023-01-04T01:55:13.424Z,959.61
2023-01-04T01:56:13.414Z,959.59
2023-01-04T01:57:13.396Z,959.62
2023-01-04T01:58:13.386Z,959.62
2023-01-04T01:59:13.389Z,959.66
2023-01-04T02:00:13.383Z,959.63
2023-01-04T02:01:13.465Z,959.65
2023-01-04T02:02:13.462Z,959.58
2023-01-04T02:03:13.430Z,959.54
2023-01-04T02:04:13.456Z,959.54
2023-01-04T02:05:13.349Z,959.52
2023-01-04T02:06:13.295Z,959.52
2023-01-04T02:07:13.287Z,959.49
2023-01-04T02:08:13.273Z,959.48
2023-01-04T02:09:13.289Z,959.47
2023-01-04T02:10:13.273Z,959.44
2023-01-04T02:11:13.267Z,959.42
2023-01-04T02:12:13.232Z,959.46
2023-01-04T02:13:13.226Z,959.45
2023-01-04T02:14:13.209Z,959.40
2023-01-04T02:15:13.199Z,959.37
2023-01-04T02:16:13.276Z,959.37
2023-01-04T02:17:13.178Z,959.34
2023-01-04T02:18:13.176Z,959.30
2023-01-04T02:19:13.150Z,959.26
2023-01-04T02:20:13.168Z,959.26
2023-01-04T02:21:13.173Z,959.20
2023-01-04T02:22:13.127Z,959.15
2023-01-04T02:23:13.128Z,959.14
2023-01-04T02:24:13.118Z,959.14
2023-01-04T02:25:13.080Z,959.12
2023-01-04T02:26:13.074Z,959.09
2023-01-04T02:27:13.061Z,959.05
2023-01-04T02:28:13.061Z,959.02
2023-01-04T02:29:13.060Z,959.01
2023-01-04T02:30:13.030Z,959.00
2023-01-04T02:31:13.137Z,958.96
2023-01-04T02:32:13.010Z,958.98
2023-01-04T02:33:12.989Z,958.94
2023-01-04T02:34:12.993Z,958.91
2023-01-04T02:35:13.010Z,958.88
2023-01-04T02:36:12.985Z,958.88
2023-01-04T02:37:12.964Z,958.86
2023-01-04T02:38:12.943Z,958.88
2023-01-04T02:39:12.931Z,958.84
2023-01-04T02:40:12.929Z,958.84
2023-01-04T02:41:12.946Z,958.85
2023-01-04T02:42:12.898Z,958.77
2023-01-04T02:43:16.157Z,958.74
2023-01-04T02:44:12.890Z,958.73
2023-01-04T02:45:12.867Z,958.70
2023-01-04T02:46:12.886Z,958.66
2023-01-04T02:47:12.847Z,958.72
2023-01-04T02:48:12.828Z,958.70
2023-01-04T02:49:12.849Z,958.71
2023-01-04T02:50:12.805Z,958.71
2023-01-04T02:51:12.794Z,958.65
2023-01-04T02:52:12.793Z,958.67
2023-01-04T02:53:12.848Z,958.68
2023-01-04T02:54:12.767Z,958.68
2023-01-04T02:55:12.753Z,958.64
2023-01-04T02:56:12.863Z,958.64
2023-01-04T02:57:12.728Z,958.63
2023-01-04T02:58:12.740Z,958.64
2023-01-04T02:59:12.703Z,958.60
2023-01-04T03:00:12.722Z,958.59
2023-01-04T03:01:12.774Z,958.60
2023-01-04T03:02:12.923Z,958.62
2023-01-04T03:03:12.805Z,958.60
2023-01-04T03:04:12.654Z,958.54
2023-01-04T03:05:12.696Z,958.63
2023-01-04T03:06:12.630Z,958.60
2023-01-04T03:07:12.616Z,958.60
2023-01-04T03:08:12.624Z,958.63
2023-01-04T03:09:12.624Z,958.62
2023-01-04T03:10:12.617Z,958.62
2023-01-04T03:11:12.570Z,958.61
2023-01-04T03:12:12.586Z,958.59
2023-01-04T03:13:12.551Z,958.55
2023-01-04T03:14:31.656Z,958.55
2023-01-04T03:15:13.555Z,958.54
2023-01-04T03:16:12.626Z,958.49
2023-01-04T03:17:12.548Z,958.36
2023-01-04T03:18:12.498Z,958.34
2023-01-04T03:19:12.506Z,958.34
2023-01-04T03:20:12.480Z,958.36
2023-01-04T03:21:12.453Z,958.33
2023-01-04T03:22:12.489Z,958.33
2023-01-04T03:23:12.447Z,958.34
2023-01-04T03:24:12.427Z,958.38
2023-01-04T03:25:12.459Z,958.39
2023-01-04T03:26:12.406Z,958.36
2023-01-04T03:27:12.421Z,958.43
2023-01-04T03:28:12.382Z,958.33
2023-01-04T03:29:12.366Z,958.27
2023-01-04T03:30:12.359Z,958.27
2023-01-04T03:31:12.471Z,958.25
2023-01-04T03:32:12.336Z,958.20
2023-01-04T03:33:12.343Z,958.27
2023-01-04T03:34:12.338Z,958.26
2023-01-04T03:35:12.304Z,958.27
2023-01-04T03:36:12.302Z,958.31
2023-01-04T03:37:12.283Z,958.33
2023-01-04T03:38:12.264Z,958.28
2023-01-04T03:39:12.287Z,958.28
2023-01-04T03:40:12.258Z,958.26
2023-01-04T03:41:12.256Z,958.23
2023-01-04T03:42:12.274Z,958.20
2023-01-04T03:43:12.213Z,958.18
2023-01-04T03:44:12.198Z,958.20
2023-01-04T03:45:12.234Z,958.16
2023-01-04T03:46:12.232Z,958.17
2023-01-04T03:47:12.230Z,958.17
2023-01-04T03:48:12.192Z,958.16
2023-01-04T03:49:12.147Z,958.17
2023-01-04T03:50:12.134Z,958.16
2023-01-04T03:51:12.123Z,958.16
2023-01-04T03:52:12.120Z,958.18
2023-01-04T03:53:12.137Z,958.13
2023-01-04T03:54:12.086Z,958.13
2023-01-04T03:55:12.077Z,958.12
2023-01-04T03:56:12.072Z,958.10
2023-01-04T03:57:12.083Z,958.02
2023-01-04T03:58:12.085Z,958.04
2023-01-04T03:59:12.067Z,958.03
2023-01-04T04:00:12.040Z,958.02
2023-01-04T04:01:12.171Z,957.96
2023-01-04T04:02:12.122Z,957.97
2023-01-04T04:03:11.999Z,957.95
2023-01-04T04:04:12.054Z,957.94
2023-01-04T04:05:11.983Z,957.90
2023-01-04T04:06:11.969Z,957.91
2023-01-04T04:07:11.961Z,957.90
2023-01-04T04:08:11.932Z,957.91
2023-01-04T04:09:11.949Z,957.91
2023-01-04T04:10:11.912Z,957.88
2023-01-04T04:11:11.902Z,957.87
2023-01-04T04:12:11.892Z,957.87
2023-01-04T04:13:11.923Z,957.90
2023-01-04T04:14:11.861Z,957.88
2023-01-04T04:15:11.878Z,957.88
2023-01-04T04:16:11.871Z,957.91
2023-01-04T04:17:11.850Z,957.89
2023-01-04T04:18:11.818Z,957.87
2023-01-04T04:19:11.815Z,957.83
2023-01-04T04:20:11.822Z,957.81
2023-01-04T04:21:11.809Z,957.78
2023-01-04T04:22:11.776Z,957.70
2023-01-04T04:23:11.791Z,957.68
2023-01-04T04:24:11.772Z,957.68
2023-01-04T04:25:11.762Z,957.60
2023-01-04T04:26:11.758Z,957.60
2023-01-04T04:27:11.719Z,957.58
2023-01-04T04:28:11.705Z,957.59
2023-01-04T04:29:11.721Z,957.57
2023-01-04T04:30:11.689Z,957.57
2023-01-04T04:31:11.741Z,957.54
2023-01-04T04:32:11.741Z,957.52
2023-01-04T04:33:11.653Z,957.53
2023-01-04T04:34:11.674Z,957.52
2023-01-04T04:35:11.635Z,957.60
2023-01-04T04:36:11.625Z,957.54
2023-01-04T04:37:11.628Z,957.58
2023-01-04T04:38:11.618Z,957.55
2023-01-04T04:39:11.601Z,957.58
2023-01-04T04:40:11.585Z,957.55
2023-01-04T04:41:11.581Z,957.55
2023-01-04T04:42:11.549Z,957.54
2023-01-04T04:43:11.580Z,957.55
2023-01-04T04:44:11.545Z,957.50
2023-01-04T04:45:11.536Z,957.49
2023-01-04T04:46:11.569Z,957.54
2023-01-04T04:47:11.550Z,957.54
2023-01-04T04:48:11.478Z,957.51
2023-01-04T04:49:11.491Z,957.54
2023-01-04T04:50:11.463Z,957.56
2023-01-04T04:51:11.454Z,957.56
2023-01-04T04:52:11.477Z,957.54
2023-01-04T04:53:11.431Z,957.52
2023-01-04T04:54:11.425Z,957.55
2023-01-04T04:55:11.470Z,957.54
2023-01-04T04:56:11.421Z,957.43
2023-01-04T04:57:11.420Z,957.48
2023-01-04T04:58:11.364Z,957.45
2023-01-04T04:59:11.361Z,957.40
2023-01-04T05:00:11.353Z,957.41
2023-01-04T05:01:11.517Z,957.40
2023-01-04T05:02:11.636Z,957.37
2023-01-04T05:03:11.454Z,957.42
2023-01-04T05:04:11.302Z,957.33
2023-01-04T05:05:11.321Z,957.31
2023-01-04T05:06:11.283Z,957.34
2023-01-04T05:07:12.826Z,957.33
2023-01-04T05:08:11.279Z,957.27
2023-01-04T05:09:11.255Z,957.19
2023-01-04T05:10:11.235Z,957.19
2023-01-04T05:11:11.272Z,957.19
2023-01-04T05:12:11.235Z,957.13
2023-01-04T05:13:11.231Z,957.15
2023-01-04T05:14:11.260Z,957.14
2023-01-04T05:15:11.183Z,957.13
2023-01-04T05:16:11.306Z,957.11
2023-01-04T05:17:11.280Z,957.18
2023-01-04T05:18:11.146Z,957.08
2023-01-04T05:19:11.157Z,957.07
2023-01-04T05:20:11.127Z,957.07
2023-01-04T05:21:14.437Z,957.04
2023-01-04T05:22:12.120Z,957.01
2023-01-04T05:23:11.095Z,957.00
2023-01-04T05:24:11.121Z,957.04
2023-01-04T05:25:11.097Z,956.95
2023-01-04T05:26:11.053Z,957.03
2023-01-04T05:27:11.056Z,957.02
2023-01-04T05:28:11.050Z,957.06
2023-01-04T05:29:11.028Z,957.03
2023-01-04T05:30:11.045Z,956.97
2023-01-04T05:31:11.016Z,956.92
2023-01-04T05:32:11.067Z,956.93
2023-01-04T05:33:10.995Z,956.96
2023-01-04T05:34:10.965Z,956.91
2023-01-04T05:35:10.968Z,956.91
2023-01-04T05:36:10.966Z,956.94
2023-01-04T05:37:11.001Z,956.97
2023-01-04T05:38:11.487Z,956.94
2023-01-04T05:39:10.909Z,956.91
2023-01-04T05:40:10.908Z,956.89
2023-01-04T05:41:10.901Z,956.88
2023-01-04T05:42:10.877Z,956.85
2023-01-04T05:43:10.925Z,956.85
2023-01-04T05:44:10.853Z,956.87
2023-01-04T05:45:10.846Z,956.87
2023-01-04T05:46:10.924Z,956.83
2023-01-04T05:47:14.861Z,956.89
2023-01-04T05:48:10.830Z,956.85
2023-01-04T05:49:10.877Z,956.91
2023-01-04T05:50:10.832Z,956.85
2023-01-04T05:51:10.818Z,956.83
2023-01-04T05:52:10.763Z,956.84
2023-01-04T05:53:10.761Z,956.86
2023-01-04T05:54:10.741Z,956.78
2023-01-04T05:55:10.945Z,956.79
2023-01-04T05:56:10.722Z,956.85
2023-01-04T05:57:10.715Z,956.75
2023-01-04T05:58:10.716Z,956.75
2023-01-04T05:59:10.703Z,956.79
2023-01-04T06:00:10.697Z,956.72
2023-01-04T06:01:10.765Z,956.69
2023-01-04T06:02:10.754Z,956.68
2023-01-04T06:03:10.872Z,956.61
2023-01-04T06:04:10.707Z,956.64
2023-01-04T06:05:10.702Z,956.51
2023-01-04T06:06:10.604Z,956.51
2023-01-04T06:07:10.603Z,956.46
2023-01-04T06:08:10.583Z,956.44
2023-01-04T06:09:10.605Z,956.40
2023-01-04T06:10:10.562Z,956.34
2023-01-04T06:11:10.555Z,956.39
2023-01-04T06:12:10.561Z,956.37
2023-01-04T06:13:10.541Z,956.30
2023-01-04T06:14:10.517Z,956.37
2023-01-04T06:15:10.563Z,956.30
2023-01-04T06:16:10.531Z,956.24
2023-01-04T06:17:10.566Z,956.25
2023-01-04T06:18:13.629Z,956.21
2023-01-04T06:19:10.470Z,956.15
2023-01-04T06:20:10.477Z,956.22
2023-01-04T06:21:10.499Z,956.16
2023-01-04T06:22:10.428Z,956.16
2023-01-04T06:23:10.434Z,956.17
2023-01-04T06:24:10.412Z,956.18
2023-01-04T06:25:10.412Z,956.19
2023-01-04T06:26:10.410Z,956.22
2023-01-04T06:27:10.380Z,956.15
2023-01-04T06:28:10.371Z,956.20
2023-01-04T06:29:10.391Z,956.17
2023-01-04T06:30:10.340Z,956.16
2023-01-04T06:31:10.457Z,956.14
2023-01-04T06:32:10.339Z,956.12
2023-01-04T06:33:10.328Z,956.09
2023-01-04T06:34:10.306Z,956.04
2023-01-04T06:35:10.310Z,956.11
2023-01-04T06:36:19.585Z,956.05
2023-01-04T06:37:11.304Z,956.06
2023-01-04T06:38:10.248Z,956.03
2023-01-04T06:39:10.413Z,956.06
2023-01-04T06:40:10.235Z,956.02
2023-01-04T06:41:10.219Z,956.02
2023-01-04T06:42:10.213Z,956.01
2023-01-04T06:43:10.224Z,956.01
2023-01-04T06:44:10.192Z,955.91
2023-01-04T06:45:10.174Z,955.90
2023-01-04T06:46:10.237Z,955.86
2023-01-04T06:47:10.192Z,955.87
2023-01-04T06:48:10.157Z,955.86
2023-01-04T06:49:11.131Z,955.98
2023-01-04T06:50:10.116Z,955.94
2023-01-04T06:51:10.135Z,955.96
2023-01-04T06:52:10.091Z,956.02
2023-01-04T06:53:10.141Z,955.96
2023-01-04T06:54:10.092Z,955.88
2023-01-04T06:55:10.074Z,955.93
2023-01-04T06:56:10.045Z,955.87
2023-01-04T06:57:10.048Z,955.84
2023-01-04T06:58:10.064Z,955.81
2023-01-04T06:59:10.061Z,955.84
2023-01-04T07:00:10.009Z,955.77
2023-01-04T07:01:10.188Z,955.82
2023-01-04T07:02:10.176Z,955.71
2023-01-04T07:03:14.890Z,955.70
2023-01-04T07:04:11.059Z,955.69
2023-01-04T07:05:09.983Z,955.72
2023-01-04T07:06:09.955Z,955.70
2023-01-04T07:07:09.929Z,955.67
2023-01-04T07:08:09.920Z,955.68
2023-01-04T07:09:09.989Z,955.72
2023-01-04T07:10:10.208Z,955.69
2023-01-04T07:11:09.898Z,955.69
2023-01-04T07:12:09.893Z,955.72
2023-01-04T07:13:09.880Z,955.77
2023-01-04T07:14:09.867Z,955.80
2023-01-04T07:15:38.483Z,955.72
2023-01-04T07:16:10.867Z,955.76
2023-01-04T07:17:09.827Z,955.72
2023-01-04T07:18:09.829Z,955.67
2023-01-04T07:19:09.812Z,955.68
2023-01-04T07:20:09.808Z,955.72
2023-01-04T07:21:09.774Z,955.70
2023-01-04T07:22:09.767Z,955.68
2023-01-04T07:23:09.769Z,955.71
2023-01-04T07:24:09.752Z,955.46
2023-01-04T07:25:09.741Z,955.64
2023-01-04T07:26:09.722Z,955.61
2023-01-04T07:27:09.734Z,955.69
2023-01-04T07:28:09.692Z,955.59
2023-01-04T07:29:09.710Z,955.63
2023-01-04T07:30:09.673Z,955.54
2023-01-04T07:31:09.756Z,955.59
2023-01-04T07:32:13.800Z,955.68
2023-01-04T07:33:09.676Z,955.56
2023-01-04T07:34:09.729Z,955.56
2023-01-04T07:35:09.627Z,955.62
2023-01-04T07:36:09.621Z,955.61
2023-01-04T07:37:09.596Z,955.66
2023-01-04T07:38:09.577Z,955.60
2023-01-04T07:39:09.596Z,955.65
2023-01-04T07:40:09.577Z,955.59
2023-01-04T07:41:09.570Z,955.57
2023-01-04T07:42:09.561Z,955.61
2023-01-04T07:43:09.535Z,955.69
2023-01-04T07:44:09.530Z,955.65
2023-01-04T07:45:09.524Z,955.63
2023-01-04T07:46:09.572Z,955.60
2023-01-04T07:47:09.509Z,955.62
2023-01-04T07:48:09.482Z,955.60
2023-01-04T07:49:14.747Z,955.58
2023-01-04T07:50:10.443Z,955.53
2023-01-04T07:51:09.459Z,955.40
2023-01-04T07:52:09.427Z,955.48
2023-01-04T07:53:09.408Z,955.46
2023-01-04T07:54:09.409Z,955.45
2023-01-04T07:55:09.414Z,955.46
2023-01-04T07:56:12.461Z,955.46
2023-01-04T07:57:10.379Z,955.41
2023-01-04T07:58:09.354Z,955.43
2023-01-04T07:59:09.380Z,955.51
2023-01-04T08:00:09.335Z,955.47
2023-01-04T08:01:09.518Z,955.45
2023-01-04T08:02:09.383Z,955.47
2023-01-04T08:03:09.335Z,955.45
2023-01-04T08:04:09.375Z,955.44
2023-01-04T08:05:09.347Z,955.48
2023-01-04T08:06:09.277Z,955.48
2023-01-04T08:07:09.254Z,955.43
2023-01-04T08:08:09.256Z,955.46
2023-01-04T08:09:09.261Z,955.42
2023-01-04T08:10:09.229Z,955.40
2023-01-04T08:11:09.231Z,955.40
2023-01-04T08:12:09.207Z,955.41
2023-01-04T08:13:09.208Z,955.30
2023-01-04T08:14:09.184Z,955.29
2023-01-04T08:15:09.193Z,955.32
2023-01-04T08:16:09.240Z,955.23
2023-01-04T08:17:09.144Z,955.26
2023-01-04T08:18:09.144Z,955.33
2023-01-04T08:19:09.146Z,955.32
2023-01-04T08:20:09.110Z,955.25
2023-01-04T08:21:09.112Z,955.32
2023-01-04T08:22:09.135Z,955.24
2023-01-04T08:23:09.075Z,955.21
2023-01-04T08:24:09.075Z,955.28
2023-01-04T08:25:09.082Z,955.23
2023-01-04T08:26:09.045Z,955.15
2023-01-04T08:27:09.053Z,955.23
2023-01-04T08:28:09.025Z,955.19
2023-01-04T08:29:09.045Z,955.16
2023-01-04T08:30:09.025Z,955.11
2023-01-04T08:31:09.099Z,955.10
2023-01-04T08:32:08.972Z,955.04
2023-01-04T08:33:08.953Z,955.04
2023-01-04T08:34:08.992Z,954.94
2023-01-04T08:35:08.940Z,954.89
2023-01-04T08:36:08.936Z,954.92
2023-01-04T08:37:08.915Z,954.97
2023-01-04T08:38:55.622Z,954.77
2023-01-04T08:39:09.929Z,954.77
2023-01-04T08:40:08.923Z,954.68
2023-01-04T08:41:30.770Z,954.70
2023-01-04T08:42:20.997Z,954.49
2023-01-04T08:43:09.897Z,954.64
2023-01-04T08:44:08.838Z,954.58
2023-01-04T08:45:08.893Z,954.56
2023-01-04T08:46:08.855Z,954.56
2023-01-04T08:47:08.865Z,954.46
2023-01-04T08:48:08.824Z,954.49
2023-01-04T08:49:08.781Z,954.52
2023-01-04T08:50:11.044Z,954.39
2023-01-04T08:51:08.777Z,954.50
2023-01-04T08:52:08.758Z,954.41
2023-01-04T08:53:08.731Z,954.49
2023-01-04T08:54:08.732Z,954.44
2023-01-04T08:55:13.127Z,954.53
2023-01-04T08:56:09.727Z,954.47
2023-01-04T08:57:08.725Z,954.31
2023-01-04T08:58:08.785Z,954.37
2023-01-04T08:59:08.849Z,954.33
2023-01-04T09:00:08.673Z,954.37
2023-01-04T09:01:08.719Z,954.32
2023-01-04T09:02:08.826Z,954.42
2023-01-04T09:03:08.791Z,954.27
2023-01-04T09:04:08.686Z,954.34
2023-01-04T09:05:09.196Z,954.20
2023-01-04T09:06:08.785Z,954.21
2023-01-04T09:07:08.589Z,954.20
2023-01-04T09:08:08.567Z,954.27
2023-01-04T09:09:08.575Z,954.17
2023-01-04T09:10:08.540Z,954.23
2023-01-04T09:11:08.528Z,954.22
2023-01-04T09:12:08.546Z,954.18
2023-01-04T09:13:08.536Z,954.15
2023-01-04T09:14:09.276Z,954.15
2023-01-04T09:15:08.489Z,954.23
2023-01-04T09:16:08.510Z,954.14
2023-01-04T09:17:08.487Z,954.05
2023-01-04T09:18:32.913Z,953.97
2023-01-04T09:19:09.486Z,954.08
2023-01-04T09:20:08.431Z,954.01
2023-01-04T09:21:08.438Z,953.97
2023-01-04T09:22:08.554Z,954.09
2023-01-04T09:23:08.397Z,954.02
2023-01-04T09:24:08.413Z,954.09
2023-01-04T09:25:08.404Z,954.00
2023-01-04T09:26:09.813Z,954.15
2023-01-04T09:27:08.356Z,954.14
2023-01-04T09:28:08.344Z,954.12
2023-01-04T09:29:08.326Z,954.10
2023-01-04T09:30:08.348Z,954.16
2023-01-04T09:31:08.357Z,954.19
2023-01-04T09:32:14.494Z,954.25
2023-01-04T09:33:09.317Z,954.16
2023-01-04T09:34:17.554Z,954.20
2023-01-04T09:35:09.276Z,954.15
2023-01-04T09:36:08.251Z,954.23
2023-01-04T09:37:08.258Z,954.19
2023-01-04T09:38:08.239Z,954.08
2023-01-04T09:39:11.906Z,954.05
2023-01-04T09:40:09.201Z,954.03
2023-01-04T09:41:08.189Z,953.86
2023-01-04T09:42:08.203Z,953.89
2023-01-04T09:43:20.537Z,953.87
2023-01-04T09:44:09.269Z,953.78
2023-01-04T09:45:24.878Z,953.89
2023-01-04T09:46:09.226Z,953.88
2023-01-04T09:47:08.200Z,953.82
2023-01-04T09:48:08.121Z,953.81
2023-01-04T09:49:08.119Z,953.78
2023-01-04T09:50:08.088Z,953.90
2023-01-04T09:51:08.079Z,953.93
2023-01-04T09:52:08.093Z,953.82
2023-01-04T09:53:08.079Z,953.89
2023-01-04T09:54:08.054Z,953.91
2023-01-04T09:55:38.358Z,954.05
2023-01-04T09:56:09.028Z,953.98
2023-01-04T09:57:08.009Z,954.03
2023-01-04T09:58:08.005Z,953.95
2023-01-04T09:59:08.028Z,953.99
2023-01-04T10:00:07.996Z,953.89
2023-01-04T10:01:08.262Z,953.92
2023-01-04T10:02:08.202Z,953.87
2023-01-04T10:03:08.075Z,953.70
2023-01-04T10:04:07.953Z,953.68
2023-01-04T10:05:07.944Z,953.52
2023-01-04T10:06:07.903Z,953.84
2023-01-04T10:07:07.893Z,953.54
2023-01-04T10:08:07.892Z,953.53
2023-01-04T10:09:07.883Z,953.65
2023-01-04T10:10:07.863Z,953.53
2023-01-04T10:11:07.853Z,953.48
2023-01-04T10:12:07.909Z,953.41
2023-01-04T10:13:07.821Z,953.73
2023-01-04T10:14:07.815Z,953.78
2023-01-04T10:15:07.825Z,953.68
2023-01-04T10:16:07.856Z,953.68
2023-01-04T10:17:13.638Z,953.45
2023-01-04T10:19:36.929Z,953.36
2023-01-04T10:21:32.733Z,953.41
2023-01-04T10:22:08.829Z,953.30
2023-01-04T10:23:07.704Z,953.53
2023-01-04T10:24:07.708Z,953.34
2023-01-04T10:25:07.708Z,953.39
2023-01-04T10:26:07.678Z,953.31
2023-01-04T10:27:07.686Z,953.28
2023-01-04T10:28:07.670Z,953.29
2023-01-04T10:29:07.640Z,953.24
2023-01-04T10:30:07.635Z,953.08
2023-01-04T10:31:38.397Z,953.14
2023-01-04T10:32:08.618Z,953.02
2023-01-04T10:33:07.593Z,953.15
2023-01-04T10:34:07.614Z,953.03
2023-01-04T10:35:07.640Z,953.28
2023-01-04T10:36:07.595Z,953.09
2023-01-04T10:37:07.570Z,953.10
2023-01-04T10:38:07.549Z,953.12
2023-01-04T10:39:07.529Z,953.04
2023-01-04T10:40:07.538Z,953.00
2023-01-04T10:41:07.503Z,952.98
2023-01-04T10:42:07.522Z,953.06
2023-01-04T10:43:07.513Z,952.97
2023-01-04T10:44:11.369Z,952.97
2023-01-04T10:45:09.542Z,953.05
2023-01-04T10:46:07.458Z,952.98
2023-01-04T10:47:07.518Z,952.95
2023-01-04T10:48:07.426Z,952.92
2023-01-04T10:49:07.419Z,952.96
2023-01-04T10:50:07.409Z,952.94
2023-01-04T10:51:10.556Z,953.01
2023-01-04T10:52:07.404Z,953.02
2023-01-04T10:53:07.384Z,952.90
2023-01-04T10:54:07.361Z,952.97
2023-01-04T10:55:07.363Z,953.02
2023-01-04T10:56:24.302Z,952.95
2023-01-04T10:57:08.348Z,952.96
2023-01-04T10:58:07.331Z,952.98
2023-01-04T10:59:07.297Z,953.03
2023-01-04T11:00:07.295Z,953.03
2023-01-04T11:01:07.435Z,952.97
2023-01-04T11:02:07.622Z,952.96
2023-01-04T11:03:09.469Z,952.93
2023-01-04T11:04:07.247Z,952.89
2023-01-04T11:05:07.243Z,952.97
2023-01-04T11:06:07.225Z,952.94
2023-01-04T11:07:07.215Z,952.93
2023-01-04T11:08:07.223Z,953.05
2023-01-04T11:09:07.208Z,953.11
2023-01-04T11:10:07.173Z,953.04
2023-01-04T11:11:07.183Z,952.70
2023-01-04T11:12:07.201Z,952.89
2023-01-04T11:13:07.157Z,952.86
2023-01-04T11:14:07.141Z,952.80
2023-01-04T11:15:07.144Z,952.74
2023-01-04T11:16:07.158Z,952.83
2023-01-04T11:17:07.106Z,952.90
2023-01-04T11:18:07.087Z,952.88
2023-01-04T11:19:07.069Z,952.73
2023-01-04T11:20:07.083Z,952.89
2023-01-04T11:21:07.084Z,952.83
2023-01-04T11:22:07.057Z,952.67
2023-01-04T11:23:07.157Z,952.69
2023-01-04T11:24:30.929Z,952.65
2023-01-04T11:25:37.330Z,952.81
2023-01-04T11:26:08.018Z,952.70
2023-01-04T11:27:07.022Z,952.61
2023-01-04T11:28:07.019Z,952.52
2023-01-04T11:29:06.963Z,952.47
2023-01-04T11:30:07.007Z,952.52
2023-01-04T11:31:06.987Z,952.50
2023-01-04T11:32:07.108Z,952.54
2023-01-04T11:33:06.927Z,952.51
2023-01-04T11:34:06.908Z,952.54
2023-01-04T11:35:06.937Z,952.48
2023-01-04T11:36:06.918Z,952.44
2023-01-04T11:37:06.916Z,952.45
2023-01-04T11:38:06.888Z,952.43
2023-01-04T11:39:06.848Z,952.29
2023-01-04T11:40:06.851Z,952.35
2023-01-04T11:41:06.867Z,952.28
2023-01-04T11:42:06.864Z,952.22
2023-01-04T11:43:06.831Z,952.19
2023-01-04T11:44:06.870Z,952.31
2023-01-04T11:45:06.781Z,952.23
2023-01-04T11:46:06.915Z,952.19
2023-01-04T11:47:06.768Z,952.24
2023-01-04T11:48:12.409Z,952.18
2023-01-04T11:49:07.760Z,952.18
2023-01-04T11:50:06.726Z,952.13
2023-01-04T11:51:08.311Z,952.19
2023-01-04T11:52:06.703Z,952.04
2023-01-04T11:53:06.689Z,952.11
2023-01-04T11:54:06.679Z,952.18
2023-01-04T11:55:06.675Z,952.09
2023-01-04T11:56:06.656Z,952.13
2023-01-04T11:57:11.656Z,952.12
2023-01-04T11:58:07.640Z,952.03
2023-01-04T11:59:06.652Z,951.98
2023-01-04T12:00:06.616Z,952.03
2023-01-04T12:01:06.612Z,952.04
2023-01-04T12:02:06.757Z,951.95
2023-01-04T12:03:06.744Z,952.01
2023-01-04T12:04:06.584Z,952.00
2023-01-04T12:05:06.549Z,952.00
2023-01-04T12:06:06.544Z,951.98
2023-01-04T12:07:06.589Z,951.98
2023-01-04T12:08:06.520Z,951.98
2023-01-04T12:09:06.514Z,951.85
2023-01-04T12:10:06.500Z,951.89
2023-01-04T12:11:06.499Z,951.86
2023-01-04T12:12:12.391Z,951.88
2023-01-04T12:13:07.482Z,951.94
2023-01-04T12:14:06.447Z,951.83
2023-01-04T12:15:06.458Z,951.85
2023-01-04T12:16:06.442Z,951.83
2023-01-04T12:17:06.420Z,951.80
2023-01-04T12:18:06.443Z,951.76
2023-01-04T12:19:06.399Z,951.68
2023-01-04T12:20:06.379Z,951.72
2023-01-04T12:21:06.399Z,951.74
2023-01-04T12:22:06.363Z,951.68
2023-01-04T12:23:06.350Z,951.61
2023-01-04T12:24:06.362Z,951.55
2023-01-04T12:25:06.355Z,951.45
2023-01-04T12:26:06.311Z,951.53
2023-01-04T12:27:06.318Z,951.48
2023-01-04T12:28:06.297Z,951.58
2023-01-04T12:29:06.318Z,951.57
2023-01-04T12:30:06.274Z,951.52